DLH6EH EDDB-EDDF
Flight info
| Callsign | DLH6EH |
|---|---|
| Flight time | 0h 46m |
| Altitude | 23000 |
| Route | KISUC1B/06L KISUC Z117 ODLUN/N0404F240 DCT ORTAG/N0391F220 T177 ODIPI/N0386F210 T157 KERAX KERAX5A |
| Aircraft | A321/M-SDE3FGHIRWY/LB1 |
Departure
| Time | 2026-05-05 14:05 |
|---|---|
| Airport | Berlin Brandenburg Airport (EDDB) |
Arrival
| Time | 2026-05-05 14:52 |
|---|---|
| Airport | Frankfurt Main Airport (EDDF) |
| Time | Latitude | Longitude | Altitude | Speed | Heading |
|---|---|---|---|---|---|
| 2026-05-05 13:39 | 52.36614 | 13.50444 | 155 ft | 0 kts | 69° |
| 2026-05-05 13:55 | 52.36609 | 13.50423 | 155 ft | 3 kts | 67° |
| 2026-05-05 13:55 | 52.36601 | 13.50393 | 155 ft | 3 kts | 65° |
| 2026-05-05 13:56 | 52.36592 | 13.50363 | 155 ft | 3 kts | 62° |
| 2026-05-05 13:56 | 52.36582 | 13.50334 | 155 ft | 3 kts | 58° |
| 2026-05-05 13:56 | 52.36571 | 13.50306 | 155 ft | 3 kts | 53° |
| 2026-05-05 13:56 | 52.36558 | 13.50281 | 155 ft | 3 kts | 40° |
| 2026-05-05 13:57 | 52.36543 | 13.50264 | 155 ft | 3 kts | 7° |
| 2026-05-05 13:57 | 52.36533 | 13.50263 | 155 ft | 0 kts | 339° |
| 2026-05-05 13:57 | 52.36533 | 13.50264 | 155 ft | 1 kts | 339° |
| 2026-05-05 13:59 | 52.36536 | 13.50262 | 155 ft | 2 kts | 339° |
| 2026-05-05 14:00 | 52.36621 | 13.50209 | 155 ft | 11 kts | 339° |
| 2026-05-05 14:00 | 52.36699 | 13.50151 | 155 ft | 14 kts | 320° |
| 2026-05-05 14:00 | 52.36772 | 13.50023 | 155 ft | 17 kts | 307° |
| 2026-05-05 14:00 | 52.36753 | 13.49838 | 155 ft | 19 kts | 249° |
| 2026-05-05 14:01 | 52.36702 | 13.49621 | 155 ft | 22 kts | 249° |
| 2026-05-05 14:01 | 52.36644 | 13.49376 | 155 ft | 24 kts | 249° |
| 2026-05-05 14:01 | 52.36583 | 13.49123 | 155 ft | 23 kts | 248° |
| 2026-05-05 14:01 | 52.36523 | 13.48873 | 155 ft | 25 kts | 248° |
| 2026-05-05 14:02 | 52.36475 | 13.48668 | 155 ft | 17 kts | 250° |
| 2026-05-05 14:02 | 52.36440 | 13.48516 | 155 ft | 8 kts | 249° |
| 2026-05-05 14:02 | 52.36442 | 13.48425 | 154 ft | 10 kts | 320° |
| 2026-05-05 14:02 | 52.36499 | 13.48382 | 154 ft | 9 kts | 340° |
| 2026-05-05 14:03 | 52.36529 | 13.48363 | 154 ft | 3 kts | 338° |
| 2026-05-05 14:03 | 52.36538 | 13.48357 | 154 ft | 0 kts | 338° |
| 2026-05-05 14:03 | 52.36540 | 13.48356 | 154 ft | 1 kts | 338° |
| 2026-05-05 14:03 | 52.36567 | 13.48338 | 154 ft | 8 kts | 338° |
| 2026-05-05 14:04 | 52.36643 | 13.48289 | 155 ft | 15 kts | 338° |
| 2026-05-05 14:04 | 52.36729 | 13.48347 | 155 ft | 18 kts | 65° |
| 2026-05-05 14:04 | 52.36787 | 13.48586 | 155 ft | 39 kts | 69° |
| 2026-05-05 14:04 | 52.36981 | 13.49396 | 155 ft | 112 kts | 69° |
| 2026-05-05 14:05 | 52.37333 | 13.50887 | 157 ft | 167 kts | 69° |
| 2026-05-05 14:05 | 52.37772 | 13.52775 | 579 ft | 183 kts | 69° |
| 2026-05-05 14:05 | 52.38232 | 13.54799 | 1193 ft | 195 kts | 66° |
| 2026-05-05 14:05 | 52.38746 | 13.56934 | 1599 ft | 212 kts | 67° |
| 2026-05-05 14:06 | 52.39319 | 13.59311 | 1789 ft | 240 kts | 68° |
| 2026-05-05 14:06 | 52.40104 | 13.61855 | 2255 ft | 254 kts | 49° |
| 2026-05-05 14:06 | 52.41514 | 13.63560 | 2943 ft | 261 kts | 20° |
| 2026-05-05 14:06 | 52.43258 | 13.64483 | 3686 ft | 267 kts | 16° |
| 2026-05-05 14:07 | 52.45039 | 13.65430 | 4490 ft | 270 kts | 17° |
| 2026-05-05 14:07 | 52.46833 | 13.66433 | 5240 ft | 275 kts | 17° |
| 2026-05-05 14:07 | 52.48654 | 13.67470 | 5989 ft | 279 kts | 17° |
| 2026-05-05 14:07 | 52.50503 | 13.68489 | 6720 ft | 282 kts | 11° |
| 2026-05-05 14:08 | 52.52452 | 13.68668 | 7438 ft | 281 kts | 348° |
| 2026-05-05 14:08 | 52.54259 | 13.67545 | 8177 ft | 279 kts | 324° |
| 2026-05-05 14:08 | 52.55619 | 13.65298 | 8831 ft | 280 kts | 300° |
| 2026-05-05 14:08 | 52.56572 | 13.62564 | 9645 ft | 279 kts | 297° |
| 2026-05-05 14:09 | 52.57555 | 13.59797 | 10341 ft | 282 kts | 299° |
| 2026-05-05 14:09 | 52.58451 | 13.56922 | 11001 ft | 283 kts | 287° |
| 2026-05-05 14:09 | 52.58828 | 13.53752 | 11680 ft | 284 kts | 270° |
| 2026-05-05 14:09 | 52.58618 | 13.50455 | 11984 ft | 301 kts | 253° |
| 2026-05-05 14:10 | 52.57752 | 13.47200 | 12121 ft | 322 kts | 242° |
| 2026-05-05 14:10 | 52.56681 | 13.43837 | 12257 ft | 342 kts | 243° |
| 2026-05-05 14:10 | 52.55572 | 13.40335 | 12380 ft | 360 kts | 243° |
| 2026-05-05 14:10 | 52.54395 | 13.36598 | 12516 ft | 376 kts | 243° |
| 2026-05-05 14:11 | 52.53181 | 13.32727 | 12846 ft | 385 kts | 243° |
| 2026-05-05 14:11 | 52.51950 | 13.28802 | 13377 ft | 388 kts | 243° |
| 2026-05-05 14:11 | 52.50712 | 13.24854 | 13891 ft | 391 kts | 243° |
| 2026-05-05 14:11 | 52.49463 | 13.20882 | 14406 ft | 392 kts | 243° |
| 2026-05-05 14:12 | 52.48206 | 13.16897 | 14900 ft | 395 kts | 243° |
| 2026-05-05 14:12 | 52.46941 | 13.12889 | 15390 ft | 397 kts | 243° |
| 2026-05-05 14:12 | 52.45667 | 13.08856 | 15852 ft | 399 kts | 243° |
| 2026-05-05 14:12 | 52.44402 | 13.04854 | 16324 ft | 402 kts | 243° |
| 2026-05-05 14:13 | 52.43113 | 13.00779 | 16798 ft | 404 kts | 243° |
| 2026-05-05 14:13 | 52.41812 | 12.96675 | 17240 ft | 407 kts | 243° |
| 2026-05-05 14:13 | 52.40499 | 12.92547 | 17701 ft | 410 kts | 243° |
| 2026-05-05 14:13 | 52.39174 | 12.88399 | 18147 ft | 413 kts | 243° |
| 2026-05-05 14:14 | 52.37839 | 12.84232 | 18537 ft | 415 kts | 243° |
| 2026-05-05 14:14 | 52.36492 | 12.80040 | 18941 ft | 417 kts | 242° |
| 2026-05-05 14:14 | 52.35140 | 12.75832 | 19340 ft | 418 kts | 242° |
| 2026-05-05 14:14 | 52.33788 | 12.71620 | 19732 ft | 420 kts | 242° |
| 2026-05-05 14:15 | 52.32426 | 12.67379 | 20131 ft | 422 kts | 242° |
| 2026-05-05 14:15 | 52.31073 | 12.63179 | 20498 ft | 424 kts | 242° |
| 2026-05-05 14:15 | 52.29690 | 12.58903 | 20889 ft | 427 kts | 242° |
| 2026-05-05 14:15 | 52.28293 | 12.54621 | 21286 ft | 428 kts | 240° |
| 2026-05-05 14:16 | 52.26615 | 12.50594 | 21654 ft | 430 kts | 231° |
| 2026-05-05 14:16 | 52.24530 | 12.47078 | 22028 ft | 433 kts | 221° |
| 2026-05-05 14:16 | 52.22093 | 12.44168 | 22401 ft | 436 kts | 212° |
| 2026-05-05 14:16 | 52.19397 | 12.41876 | 22758 ft | 439 kts | 207° |
| 2026-05-05 14:17 | 52.16657 | 12.39676 | 23114 ft | 440 kts | 207° |
| 2026-05-05 14:17 | 52.13933 | 12.37494 | 23430 ft | 442 kts | 207° |
| 2026-05-05 14:17 | 52.11176 | 12.35246 | 23680 ft | 444 kts | 210° |
| 2026-05-05 14:17 | 52.08582 | 12.32539 | 23819 ft | 444 kts | 218° |
| 2026-05-05 14:18 | 52.06261 | 12.29253 | 23865 ft | 443 kts | 226° |
| 2026-05-05 14:18 | 52.04250 | 12.25440 | 24053 ft | 445 kts | 233° |
| 2026-05-05 14:18 | 52.02414 | 12.21392 | 24367 ft | 445 kts | 233° |
| 2026-05-05 14:18 | 52.00571 | 12.17367 | 24712 ft | 443 kts | 233° |
| 2026-05-05 14:19 | 51.98731 | 12.13374 | 25080 ft | 441 kts | 233° |
| 2026-05-05 14:19 | 51.96896 | 12.09407 | 25450 ft | 439 kts | 233° |
| 2026-05-05 14:19 | 51.95089 | 12.05504 | 25779 ft | 438 kts | 233° |
| 2026-05-05 14:19 | 51.93266 | 12.01568 | 25852 ft | 436 kts | 233° |
| 2026-05-05 14:20 | 51.91445 | 11.97639 | 25855 ft | 435 kts | 233° |
| 2026-05-05 14:20 | 51.89626 | 11.93718 | 25855 ft | 437 kts | 233° |
| 2026-05-05 14:20 | 51.87799 | 11.89782 | 25858 ft | 437 kts | 233° |
| 2026-05-05 14:20 | 51.85973 | 11.85848 | 25858 ft | 437 kts | 233° |
| 2026-05-05 14:21 | 51.84146 | 11.81916 | 25859 ft | 437 kts | 233° |
| 2026-05-05 14:21 | 51.82311 | 11.78001 | 25860 ft | 437 kts | 232° |
| 2026-05-05 14:21 | 51.80462 | 11.74095 | 25861 ft | 437 kts | 232° |
| 2026-05-05 14:21 | 51.78631 | 11.70255 | 25868 ft | 437 kts | 232° |
| 2026-05-05 14:22 | 51.76780 | 11.66376 | 25865 ft | 436 kts | 232° |
| 2026-05-05 14:22 | 51.74927 | 11.62493 | 25864 ft | 436 kts | 232° |
| 2026-05-05 14:22 | 51.73078 | 11.58622 | 25862 ft | 436 kts | 232° |
| 2026-05-05 14:22 | 51.71225 | 11.54749 | 25849 ft | 436 kts | 232° |
| 2026-05-05 14:23 | 51.69375 | 11.50883 | 25843 ft | 436 kts | 232° |
| 2026-05-05 14:23 | 51.67520 | 11.47008 | 25840 ft | 437 kts | 232° |
| 2026-05-05 14:23 | 51.65665 | 11.43142 | 25838 ft | 437 kts | 232° |
| 2026-05-05 14:23 | 51.63802 | 11.39263 | 25838 ft | 437 kts | 232° |
| 2026-05-05 14:24 | 51.61966 | 11.35448 | 25838 ft | 438 kts | 232° |
| 2026-05-05 14:24 | 51.60103 | 11.31575 | 25839 ft | 438 kts | 232° |
| 2026-05-05 14:24 | 51.58240 | 11.27708 | 25839 ft | 438 kts | 232° |
| 2026-05-05 14:24 | 51.56367 | 11.23829 | 25837 ft | 438 kts | 232° |
| 2026-05-05 14:25 | 51.54496 | 11.19961 | 25835 ft | 438 kts | 232° |
| 2026-05-05 14:25 | 51.52531 | 11.16238 | 25835 ft | 438 kts | 223° |
| 2026-05-05 14:25 | 51.50219 | 11.13039 | 25826 ft | 439 kts | 220° |
| 2026-05-05 14:25 | 51.47878 | 11.09895 | 25837 ft | 439 kts | 220° |
| 2026-05-05 14:26 | 51.45564 | 11.06810 | 25837 ft | 439 kts | 219° |
| 2026-05-05 14:26 | 51.43210 | 11.03687 | 25838 ft | 439 kts | 219° |
| 2026-05-05 14:26 | 51.40856 | 11.00570 | 25839 ft | 439 kts | 219° |
| 2026-05-05 14:26 | 51.38501 | 10.97457 | 25833 ft | 439 kts | 219° |
| 2026-05-05 14:27 | 51.36145 | 10.94348 | 25833 ft | 439 kts | 219° |
| 2026-05-05 14:27 | 51.33790 | 10.91243 | 25833 ft | 439 kts | 219° |
| 2026-05-05 14:27 | 51.31437 | 10.88138 | 25833 ft | 439 kts | 219° |
| 2026-05-05 14:27 | 51.29079 | 10.85028 | 25825 ft | 439 kts | 219° |
| 2026-05-05 14:28 | 51.26723 | 10.81918 | 25824 ft | 439 kts | 219° |
| 2026-05-05 14:28 | 51.24400 | 10.78856 | 25824 ft | 439 kts | 219° |
| 2026-05-05 14:28 | 51.22041 | 10.75757 | 25805 ft | 440 kts | 219° |
| 2026-05-05 14:28 | 51.19673 | 10.72655 | 25561 ft | 440 kts | 219° |
| 2026-05-05 14:29 | 51.17302 | 10.69550 | 25311 ft | 442 kts | 219° |
| 2026-05-05 14:29 | 51.14927 | 10.66440 | 25067 ft | 443 kts | 219° |
| 2026-05-05 14:29 | 51.12543 | 10.63325 | 24836 ft | 444 kts | 219° |
| 2026-05-05 14:29 | 51.10163 | 10.60223 | 24227 ft | 441 kts | 219° |
| 2026-05-05 14:30 | 51.07782 | 10.57122 | 23703 ft | 445 kts | 219° |
| 2026-05-05 14:30 | 51.05399 | 10.54027 | 23478 ft | 451 kts | 219° |
| 2026-05-05 14:30 | 51.02966 | 10.50876 | 23217 ft | 452 kts | 219° |
| 2026-05-05 14:30 | 51.00528 | 10.47718 | 22941 ft | 451 kts | 219° |
| 2026-05-05 14:31 | 50.98097 | 10.44573 | 22670 ft | 450 kts | 219° |
| 2026-05-05 14:31 | 50.95674 | 10.41441 | 22412 ft | 449 kts | 218° |
| 2026-05-05 14:31 | 50.93257 | 10.38321 | 22147 ft | 447 kts | 218° |
| 2026-05-05 14:31 | 50.90852 | 10.35219 | 21879 ft | 445 kts | 218° |
| 2026-05-05 14:32 | 50.88451 | 10.32126 | 21619 ft | 444 kts | 218° |
| 2026-05-05 14:32 | 50.86059 | 10.29051 | 21354 ft | 443 kts | 218° |
| 2026-05-05 14:32 | 50.83703 | 10.26028 | 21092 ft | 441 kts | 218° |
| 2026-05-05 14:32 | 50.81395 | 10.22739 | 20830 ft | 441 kts | 225° |
| 2026-05-05 14:33 | 50.79456 | 10.19096 | 20433 ft | 436 kts | 232° |
| 2026-05-05 14:33 | 50.77844 | 10.15071 | 19604 ft | 432 kts | 240° |
| 2026-05-05 14:33 | 50.76505 | 10.10849 | 18774 ft | 427 kts | 242° |
| 2026-05-05 14:33 | 50.75189 | 10.06675 | 17973 ft | 422 kts | 242° |
| 2026-05-05 14:34 | 50.73881 | 10.02552 | 17060 ft | 418 kts | 242° |
| 2026-05-05 14:34 | 50.72581 | 9.98480 | 16172 ft | 413 kts | 242° |
| 2026-05-05 14:34 | 50.71290 | 9.94458 | 15314 ft | 409 kts | 242° |
| 2026-05-05 14:34 | 50.70005 | 9.90467 | 14488 ft | 406 kts | 242° |
| 2026-05-05 14:35 | 50.68747 | 9.86569 | 13700 ft | 403 kts | 242° |
| 2026-05-05 14:35 | 50.67483 | 9.82648 | 12863 ft | 399 kts | 242° |
| 2026-05-05 14:35 | 50.66233 | 9.78766 | 12034 ft | 395 kts | 242° |
| 2026-05-05 14:35 | 50.64876 | 9.75046 | 11485 ft | 384 kts | 234° |
| 2026-05-05 14:36 | 50.63307 | 9.71813 | 11359 ft | 361 kts | 228° |
| 2026-05-05 14:36 | 50.61595 | 9.69054 | 11236 ft | 344 kts | 221° |
| 2026-05-05 14:36 | 50.59821 | 9.66662 | 11093 ft | 329 kts | 220° |
| 2026-05-05 14:36 | 50.58173 | 9.64249 | 10840 ft | 318 kts | 223° |
| 2026-05-05 14:37 | 50.56632 | 9.61832 | 10588 ft | 307 kts | 224° |
| 2026-05-05 14:37 | 50.55185 | 9.59505 | 10339 ft | 298 kts | 225° |
| 2026-05-05 14:37 | 50.53758 | 9.57210 | 10123 ft | 289 kts | 224° |
| 2026-05-05 14:37 | 50.52360 | 9.54989 | 9869 ft | 284 kts | 224° |
| 2026-05-05 14:38 | 50.50953 | 9.52832 | 9655 ft | 282 kts | 219° |
| 2026-05-05 14:38 | 50.49242 | 9.51412 | 9417 ft | 279 kts | 198° |
| 2026-05-05 14:38 | 50.47382 | 9.50537 | 9185 ft | 278 kts | 195° |
| 2026-05-05 14:38 | 50.45521 | 9.49717 | 8951 ft | 277 kts | 195° |
| 2026-05-05 14:39 | 50.43668 | 9.48904 | 8705 ft | 276 kts | 195° |
| 2026-05-05 14:39 | 50.41816 | 9.48100 | 8447 ft | 275 kts | 195° |
| 2026-05-05 14:39 | 50.39999 | 9.47315 | 8193 ft | 274 kts | 195° |
| 2026-05-05 14:39 | 50.38163 | 9.46526 | 7940 ft | 274 kts | 195° |
| 2026-05-05 14:40 | 50.36330 | 9.45737 | 7690 ft | 273 kts | 195° |
| 2026-05-05 14:40 | 50.34502 | 9.44953 | 7430 ft | 272 kts | 195° |
| 2026-05-05 14:40 | 50.32679 | 9.44176 | 7191 ft | 271 kts | 195° |
| 2026-05-05 14:40 | 50.30858 | 9.43401 | 6946 ft | 270 kts | 195° |
| 2026-05-05 14:41 | 50.29043 | 9.42633 | 6702 ft | 270 kts | 195° |
| 2026-05-05 14:41 | 50.27236 | 9.41834 | 6456 ft | 269 kts | 201° |
| 2026-05-05 14:41 | 50.25663 | 9.40325 | 6217 ft | 266 kts | 224° |
| 2026-05-05 14:41 | 50.24614 | 9.37960 | 5957 ft | 267 kts | 245° |
| 2026-05-05 14:42 | 50.23887 | 9.35341 | 5697 ft | 266 kts | 245° |
| 2026-05-05 14:42 | 50.23161 | 9.32692 | 5441 ft | 264 kts | 245° |
| 2026-05-05 14:42 | 50.22440 | 9.30061 | 5197 ft | 263 kts | 246° |
| 2026-05-05 14:42 | 50.21717 | 9.27435 | 4952 ft | 264 kts | 245° |
| 2026-05-05 14:43 | 50.20993 | 9.24817 | 4698 ft | 262 kts | 246° |
| 2026-05-05 14:43 | 50.20267 | 9.22200 | 4444 ft | 262 kts | 246° |
| 2026-05-05 14:43 | 50.19543 | 9.19599 | 4193 ft | 261 kts | 245° |
| 2026-05-05 14:43 | 50.18826 | 9.17009 | 4008 ft | 261 kts | 245° |
| 2026-05-05 14:44 | 50.18101 | 9.14422 | 3989 ft | 260 kts | 245° |
| 2026-05-05 14:44 | 50.17378 | 9.11837 | 3987 ft | 260 kts | 245° |
| 2026-05-05 14:44 | 50.16662 | 9.09277 | 3992 ft | 261 kts | 245° |
| 2026-05-05 14:44 | 50.15938 | 9.06686 | 3993 ft | 261 kts | 245° |
| 2026-05-05 14:45 | 50.15208 | 9.04079 | 3996 ft | 262 kts | 244° |
| 2026-05-05 14:45 | 50.14305 | 9.01628 | 3997 ft | 261 kts | 238° |
| 2026-05-05 14:45 | 50.13525 | 8.99094 | 3993 ft | 257 kts | 247° |
| 2026-05-05 14:45 | 50.12952 | 8.96631 | 4018 ft | 227 kts | 249° |
| 2026-05-05 14:46 | 50.12450 | 8.94423 | 4008 ft | 206 kts | 248° |
| 2026-05-05 14:46 | 50.11984 | 8.92423 | 4007 ft | 191 kts | 248° |
| 2026-05-05 14:46 | 50.11532 | 8.90500 | 4009 ft | 187 kts | 250° |
| 2026-05-05 14:46 | 50.11087 | 8.88605 | 4008 ft | 187 kts | 248° |
| 2026-05-05 14:47 | 50.10641 | 8.86707 | 3993 ft | 187 kts | 249° |
| 2026-05-05 14:47 | 50.10198 | 8.84823 | 3840 ft | 188 kts | 249° |
| 2026-05-05 14:47 | 50.09749 | 8.82918 | 3613 ft | 187 kts | 249° |
| 2026-05-05 14:47 | 50.09303 | 8.81023 | 3383 ft | 185 kts | 249° |
| 2026-05-05 14:48 | 50.08875 | 8.79206 | 3143 ft | 177 kts | 248° |
| 2026-05-05 14:48 | 50.08455 | 8.77428 | 2909 ft | 174 kts | 248° |
| 2026-05-05 14:48 | 50.08042 | 8.75682 | 2682 ft | 171 kts | 248° |
| 2026-05-05 14:48 | 50.07640 | 8.73978 | 2452 ft | 160 kts | 249° |
| 2026-05-05 14:49 | 50.07262 | 8.72373 | 2247 ft | 159 kts | 251° |
| 2026-05-05 14:49 | 50.07105 | 8.70677 | 2009 ft | 158 kts | 263° |
| 2026-05-05 14:49 | 50.06968 | 8.69079 | 1788 ft | 145 kts | 258° |
| 2026-05-05 14:49 | 50.06738 | 8.67574 | 1666 ft | 142 kts | 251° |
| 2026-05-05 14:50 | 50.06386 | 8.66148 | 1484 ft | 140 kts | 245° |
| 2026-05-05 14:50 | 50.05976 | 8.64775 | 1279 ft | 141 kts | 246° |
| 2026-05-05 14:50 | 50.05623 | 8.63346 | 1058 ft | 142 kts | 250° |
| 2026-05-05 14:50 | 50.05288 | 8.61908 | 884 ft | 142 kts | 247° |
| 2026-05-05 14:51 | 50.04936 | 8.60488 | 685 ft | 139 kts | 250° |
| 2026-05-05 14:51 | 50.04598 | 8.59084 | 487 ft | 141 kts | 249° |
| 2026-05-05 14:51 | 50.04268 | 8.57679 | 370 ft | 129 kts | 250° |
| 2026-05-05 14:51 | 50.03997 | 8.56542 | 359 ft | 95 kts | 250° |
| 2026-05-05 14:52 | 50.03807 | 8.55749 | 356 ft | 55 kts | 249° |
| 2026-05-05 14:52 | 50.03705 | 8.55320 | 352 ft | 39 kts | 250° |
| 2026-05-05 14:52 | 50.03690 | 8.55071 | 348 ft | 12 kts | 284° |
| 2026-05-05 14:52 | 50.03705 | 8.54960 | 345 ft | 10 kts | 277° |
| 2026-05-05 14:53 | 50.03714 | 8.54851 | 345 ft | 10 kts | 284° |
| 2026-05-05 14:53 | 50.03749 | 8.54818 | 355 ft | 4 kts | 21° |
| 2026-05-05 14:53 | 50.03772 | 8.54837 | 352 ft | 4 kts | 34° |
| 2026-05-05 14:53 | 50.03800 | 8.54906 | 357 ft | 12 kts | 72° |
| 2026-05-05 14:54 | 50.03836 | 8.55064 | 349 ft | 19 kts | 68° |
| 2026-05-05 14:54 | 50.03893 | 8.55293 | 355 ft | 26 kts | 70° |
| 2026-05-05 14:54 | 50.03954 | 8.55558 | 356 ft | 27 kts | 70° |
| 2026-05-05 14:54 | 50.04019 | 8.55828 | 354 ft | 27 kts | 69° |
| 2026-05-05 14:55 | 50.04084 | 8.56102 | 357 ft | 27 kts | 69° |
| 2026-05-05 14:55 | 50.04146 | 8.56357 | 359 ft | 23 kts | 70° |
| 2026-05-05 14:55 | 50.04205 | 8.56606 | 359 ft | 26 kts | 69° |
| 2026-05-05 14:55 | 50.04264 | 8.56852 | 362 ft | 26 kts | 70° |
| 2026-05-05 14:56 | 50.04329 | 8.57129 | 365 ft | 27 kts | 70° |
| 2026-05-05 14:56 | 50.04396 | 8.57410 | 361 ft | 28 kts | 69° |
| 2026-05-05 14:56 | 50.04468 | 8.57706 | 369 ft | 25 kts | 70° |
| 2026-05-05 14:56 | 50.04507 | 8.57875 | 367 ft | 11 kts | 70° |
| 2026-05-05 14:57 | 50.04524 | 8.57945 | 366 ft | 0 kts | 69° |
| 2026-05-05 14:57 | 50.04524 | 8.57946 | 366 ft | 1 kts | 69° |
| 2026-05-05 14:57 | 50.04536 | 8.57991 | 367 ft | 10 kts | 69° |
| 2026-05-05 14:58 | 50.04572 | 8.58142 | 370 ft | 19 kts | 70° |
| 2026-05-05 14:58 | 50.04621 | 8.58348 | 371 ft | 23 kts | 69° |
| 2026-05-05 14:58 | 50.04680 | 8.58599 | 370 ft | 26 kts | 70° |
| 2026-05-05 14:58 | 50.04768 | 8.58749 | 370 ft | 17 kts | 354° |
| 2026-05-05 14:59 | 50.04886 | 8.58684 | 363 ft | 18 kts | 339° |
| 2026-05-05 14:59 | 50.04967 | 8.58731 | 360 ft | 10 kts | 66° |
| 2026-05-05 14:59 | 50.04993 | 8.58849 | 361 ft | 13 kts | 70° |
| 2026-05-05 14:59 | 50.05027 | 8.58995 | 362 ft | 16 kts | 69° |
| 2026-05-05 15:00 | 50.05046 | 8.59107 | 366 ft | 4 kts | 129° |
| 2026-05-05 15:00 | 50.05028 | 8.59127 | 368 ft | 4 kts | 153° |
| 2026-05-05 15:00 | 50.04996 | 8.59142 | 363 ft | 2 kts | 161° |
| 2026-05-05 15:00 | 50.04986 | 8.59147 | 366 ft | 1 kts | 161° |
| 2026-05-05 15:01 | 50.04984 | 8.59149 | 365 ft | 0 kts | 161° |
| 2026-05-05 15:01 | 50.04981 | 8.59150 | 364 ft | 0 kts | 161° |
| 2026-05-05 15:01 | 50.04980 | 8.59151 | 364 ft | 0 kts | 161° |